Time;durP1;ratioP1;P1;durP2;ratioP2;P2;SDS_P1;SDS_P2;PMS_P1;PMS_P2;Temp;Humidity;BMP_temperature;BMP_pressure;BME280_temperature;BME280_humidity;BME280_pressure;Samples;Min_cycle;Max_cycle;Signal;HPM_P1;HPM_P2
2021/01/14 00:00:37;;;;;;;;;1.00;1.00;21.20;80.40;;;20.24;60.11;102556.75;5095602;28;8912;-52
2021/01/14 00:03:11;;;;;;;;;0.00;0.00;20.90;80.20;;;20.21;59.97;102548.97;5085561;28;8829;-49
2021/01/14 00:05:40;;;;;;;;;1.00;0.00;21.30;80.20;;;20.22;60.30;102550.66;5087739;28;8929;-54
2021/01/14 00:08:08;;;;;;;;;1.00;1.00;21.10;80.20;;;20.20;60.22;102548.09;5081850;28;8798;-55
2021/01/14 00:10:38;;;;;;;;;1.00;0.00;21.10;80.10;;;20.16;60.38;102547.47;5075097;28;9546;-53
2021/01/14 00:13:10;;;;;;;;;1.00;1.00;21.00;80.10;;;20.16;60.02;102552.84;5081703;28;8803;-52
2021/01/14 00:15:37;;;;;;;;;0.20;0.20;20.80;80.00;;;20.14;59.97;102556.63;5095616;28;8896;-54
2021/01/14 00:18:05;;;;;;;;;1.40;0.80;21.10;80.30;;;20.14;60.40;102559.31;5095342;28;8880;-54
2021/01/14 00:20:32;;;;;;;;;0.00;0.00;21.10;80.30;;;20.14;60.21;102559.31;5075774;28;8781;-52
2021/01/14 00:22:59;;;;;;;;;1.80;0.00;21.10;80.20;;;20.12;60.22;102563.94;5075839;28;8774;-53
2021/01/14 00:25:26;;;;;;;;;1.20;0.00;21.00;80.20;;;20.10;60.16;102564.06;5075478;28;8802;-54
2021/01/14 00:27:52;;;;;;;;;0.80;0.20;21.20;80.30;;;20.09;60.16;102570.38;5085856;28;8826;-54
2021/01/14 00:30:32;;;;;;;;;0.80;0.80;21.10;80.10;;;20.10;60.19;102576.63;5095954;28;8788;-55
2021/01/14 00:33:02;;;;;;;;;1.60;1.60;21.00;80.30;;;20.08;60.26;102575.91;5091073;28;8795;-54
2021/01/14 00:35:31;;;;;;;;;1.00;0.80;21.00;80.20;;;20.05;60.29;102579.66;5093807;28;8869;-55
2021/01/14 00:37:59;;;;;;;;;0.00;0.00;21.20;80.30;;;20.07;60.21;102574.16;5090394;28;8807;-53
2021/01/14 00:40:30;;;;;;;;;2.80;1.20;21.00;80.30;;;20.06;60.36;102585.88;5088799;28;8866;-53
2021/01/14 00:43:01;;;;;;;;;0.20;0.20;21.00;80.30;;;20.04;60.34;102593.19;5093446;28;8913;-52
2021/01/14 00:45:30;;;;;;;;;0.20;0.00;20.90;80.30;;;20.02;60.37;102589.78;5084646;28;8816;-53
2021/01/14 00:47:58;;;;;;;;;0.00;0.00;21.00;80.20;;;20.01;60.32;102591.59;5089783;28;8804;-53
2021/01/14 00:50:28;;;;;;;;;0.80;0.80;20.90;80.10;;;20.01;60.19;102593.44;5095601;28;8815;-52
2021/01/14 00:52:54;;;;;;;;;0.00;0.00;21.00;80.20;;;19.99;60.20;102577.44;5072231;28;8824;-53
2021/01/14 00:55:22;;;;;;;;;1.00;0.00;20.90;80.10;;;19.98;60.32;102588.31;5087065;28;8833;-49
2021/01/14 00:57:49;;;;;;;;;0.00;0.00;20.70;80.10;;;19.97;60.30;102592.81;5091245;28;9496;-51
2021/01/14 01:00:19;;;;;;;;;1.00;1.00;20.70;80.20;;;19.96;60.43;102596.47;5095047;28;8811;-47
2021/01/14 01:02:48;;;;;;;;;1.00;0.00;21.00;80.50;;;19.94;60.42;102585.00;5090555;28;8810;-52
2021/01/14 01:05:17;;;;;;;;;0.60;0.00;20.80;80.40;;;19.92;60.41;102573.53;5101654;28;8836;-49
2021/01/14 01:07:59;;;;;;;;;1.00;0.00;20.90;80.50;;;19.92;60.33;102573.53;5088036;28;9516;-49
2021/01/14 01:10:27;;;;;;;;;0.00;0.00;20.90;80.40;;;19.91;60.40;102577.19;5083528;28;8916;-52
2021/01/14 01:12:56;;;;;;;;;0.80;0.60;20.60;80.20;;;19.89;60.52;102565.72;5085428;28;8800;-49
2021/01/14 01:15:25;;;;;;;;;0.00;0.00;20.80;80.30;;;19.89;60.41;102574.63;5102841;28;8818;-48
2021/01/14 01:17:52;;;;;;;;;1.00;1.00;20.80;80.30;;;19.89;60.34;102571.94;5088159;28;8790;-49
2021/01/14 01:20:19;;;;;;;;;1.00;0.00;20.60;80.30;;;19.88;60.23;102575.59;5084511;28;8805;-48
2021/01/14 01:22:46;;;;;;;;;0.60;0.40;20.80;80.40;;;19.87;60.35;102575.72;5087617;28;8768;-53
2021/01/14 01:25:13;;;;;;;;;0.00;0.00;20.80;80.40;;;19.87;60.32;102573.03;5088975;28;8869;-49
2021/01/14 01:27:40;;;;;;;;;0.00;0.00;20.60;80.20;;;19.85;60.46;102567.81;5088437;28;8892;-52
2021/01/14 01:30:08;;;;;;;;;0.00;0.00;20.80;80.30;;;19.82;60.37;102569.84;5083593;28;9573;-49
2021/01/14 01:32:35;;;;;;;;;0.00;0.00;20.90;80.40;;;19.83;60.37;102574.25;5074115;28;9611;-48
2021/01/14 01:35:02;;;;;;;;;0.00;0.00;20.80;80.30;;;19.83;60.33;102574.25;5086254;28;8833;-47
2021/01/14 01:37:29;;;;;;;;;0.00;0.00;20.70;80.30;;;19.80;60.40;102571.81;5095691;28;8807;-47
2021/01/14 01:39:56;;;;;;;;;1.00;0.00;20.80;80.40;;;19.79;60.55;102568.25;5086907;28;9550;-53
2021/01/14 01:42:23;;;;;;;;;0.80;0.00;20.60;80.50;;;19.80;61.26;102566.47;5085167;28;8772;-58
2021/01/14 01:44:50;;;;;;;;;0.60;0.60;20.80;81.50;;;19.79;61.29;102549.47;5082318;28;8895;-58
2021/01/14 01:47:32;;;;;;;;;1.80;1.00;20.90;81.00;;;19.81;62.58;102552.91;5090181;28;8764;-51
2021/01/14 01:50:02;;;;;;;;;3.40;1.00;20.80;81.80;;;19.82;62.97;102561.81;5071821;28;8785;-46
2021/01/14 01:52:34;;;;;;;;;1.40;1.00;20.80;82.50;;;19.81;62.96;102549.38;5090623;28;8775;-51
2021/01/14 01:55:03;;;;;;;;;6.20;4.80;20.90;82.40;;;19.80;62.25;102545.00;5077403;28;8822;-51
2021/01/14 01:57:30;;;;;;;;;6.40;4.80;21.00;81.60;;;19.81;62.94;102538.66;5081350;28;8800;-53
2021/01/14 01:59:57;;;;;;;;;4.00;2.00;20.90;82.30;;;19.82;63.79;102546.59;5087736;28;8823;-54
2021/01/14 02:02:28;;;;;;;;;2.20;2.20;20.90;82.60;;;19.83;66.56;102547.44;5076287;28;8806;-55
2021/01/14 02:04:57;;;;;;;;;1.00;1.00;20.70;84.40;;;19.84;67.32;102549.97;5086231;28;8830;-51
2021/01/14 02:07:51;;;;;;;;;0.00;0.00;20.90;86.50;;;19.88;66.70;102553.31;5090796;28;8838;-52
2021/01/14 02:10:51;;;;;;;;;0.00;0.00;20.90;85.90;;;19.97;66.40;102565.97;5073440;28;8814;-54
2021/01/14 02:13:41;;;;;;;;;0.00;0.00;21.20;85.00;;;20.04;66.45;102561.84;5074824;28;8805;-52
2021/01/14 02:16:10;;;;;;;;;2.20;1.00;21.40;84.50;;;20.07;66.45;102566.97;5085784;28;8919;-46
2021/01/14 02:18:38;;;;;;;;;1.00;1.00;21.60;84.30;;;20.07;66.92;102560.75;5064396;28;9518;-54
2021/01/14 02:21:10;;;;;;;;;0.60;0.60;21.60;85.30;;;20.08;66.86;102576.75;5081367;28;8786;-54
2021/01/14 02:23:45;;;;;;;;;0.20;0.20;21.40;85.60;;;20.08;66.66;102578.56;5073406;28;8779;-52
2021/01/14 02:26:42;;;;;;;;;1.20;1.00;21.30;85.70;;;20.09;67.04;102574.91;5080960;28;9520;-53
2021/01/14 02:29:09;;;;;;;;;0.80;0.80;21.20;85.90;;;20.07;66.70;102572.34;5063974;28;8804;-54
2021/01/14 02:31:36;;;;;;;;;1.20;1.20;21.10;85.80;;;20.08;66.48;102579.44;5085546;28;8764;-52
2021/01/14 02:34:03;;;;;;;;;1.00;1.00;21.30;85.90;;;20.07;66.33;102583.06;5084577;28;8827;-51
2021/01/14 02:36:30;;;;;;;;;1.80;1.20;21.40;85.90;;;20.09;65.85;102593.69;5084089;28;9593;-52
2021/01/14 02:38:57;;;;;;;;;4.80;4.00;21.20;85.70;;;20.06;66.84;102591.25;5091814;28;8808;-53
2021/01/14 02:41:23;;;;;;;;;3.40;3.40;21.10;86.60;;;19.98;63.72;102593.69;5078388;28;9515;-52
2021/01/14 02:43:50;;;;;;;;;9.50;7.00;21.00;84.30;;;19.87;63.20;102591.81;5086699;28;8819;-53
2021/01/14 02:46:19;;;;;;;;;8.00;5.80;20.70;83.90;;;19.81;64.12;102584.25;5083454;28;8772;-52
2021/01/14 02:49:09;;;;;;;;;4.00;3.25;20.60;84.20;;;19.78;63.65;102596.06;5087020;28;8845;-52
2021/01/14 02:51:54;;;;;;;;;5.75;5.50;20.80;84.00;;;19.72;63.88;102589.34;5072246;28;8772;-51
2021/01/14 02:54:22;;;;;;;;;6.25;6.00;20.50;84.40;;;19.71;64.22;102590.28;5079578;28;8820;-52
2021/01/14 02:56:50;;;;;;;;;9.50;9.50;20.50;83.30;;;19.68;64.04;102601.25;5060228;28;8799;-48
2021/01/14 02:59:17;;;;;;;;;14.50;13.75;20.50;83.30;;;19.64;64.42;102597.09;5074621;28;9495;-54
2021/01/14 03:01:44;;;;;;;;;15.75;15.00;20.50;83.90;;;19.63;64.18;102606.09;5074480;28;8736;-52
2021/01/14 03:04:11;;;;;;;;;32.00;30.50;20.50;83.00;;;19.59;64.14;102612.66;5085398;28;8834;-53
2021/01/14 03:06:38;;;;;;;;;25.25;23.25;20.50;83.70;;;19.56;63.94;102607.50;5088302;28;9636;-54
2021/01/14 03:09:06;;;;;;;;;37.75;30.75;20.30;83.20;;;19.53;64.07;102605.91;5085051;28;8808;-53
2021/01/14 03:11:34;;;;;;;;;29.50;27.25;20.40;83.50;;;19.47;63.71;102603.72;5082672;28;8774;-52
2021/01/14 03:14:02;;;;;;;;;25.25;24.25;20.60;83.50;;;19.45;63.56;102607.47;5084739;28;8847;-51
2021/01/14 03:16:29;;;;;;;;;28.75;27.75;20.40;82.80;;;19.41;63.42;102616.69;5089917;28;8785;-50
2021/01/14 03:18:56;;;;;;;;;30.75;27.75;20.40;83.30;;;19.34;63.37;102620.84;5095234;28;8809;-51
2021/01/14 03:21:24;;;;;;;;;25.00;23.50;20.10;83.40;;;19.29;63.47;102627.38;5093070;28;8764;-51
2021/01/14 03:23:53;;;;;;;;;27.00;24.25;20.20;83.70;;;19.24;63.56;102626.00;5096857;28;10034;-49
2021/01/14 03:26:21;;;;;;;;;23.25;21.75;20.10;83.80;;;19.19;63.61;102630.84;5081703;28;8786;-49
2021/01/14 03:28:49;;;;;;;;;30.25;27.50;20.20;83.40;;;19.13;63.67;102632.13;5099396;28;8796;-50
2021/01/14 03:31:17;;;;;;;;;36.00;33.50;19.90;83.90;;;19.09;64.08;102649.41;5090908;28;8784;-53
2021/01/14 03:33:46;;;;;;;;;29.25;28.75;19.70;84.80;;;19.11;64.30;102651.97;5089979;28;8851;-50
2021/01/14 03:36:19;;;;;;;;;31.50;28.25;19.60;85.50;;;19.11;64.60;102660.88;5083712;28;8853;-50
2021/01/14 03:38:47;;;;;;;;;22.25;21.75;19.80;85.30;;;19.07;64.68;102664.75;5089402;28;9518;-56
2021/01/14 03:41:17;;;;;;;;;22.25;20.00;19.80;85.00;;;18.99;64.66;102665.28;5084088;28;8812;-52
2021/01/14 03:43:45;;;;;;;;;15.50;15.50;20.00;84.90;;;18.96;64.70;102660.16;5081294;28;8908;-51
2021/01/14 03:46:20;;;;;;;;;18.25;16.25;19.80;84.70;;;18.92;64.64;102663.16;5090893;28;9493;-54
2021/01/14 03:48:49;;;;;;;;;15.00;14.25;19.80;84.80;;;18.86;65.08;102668.00;5084770;28;8805;-53
2021/01/14 03:51:21;;;;;;;;;18.75;18.50;19.80;84.50;;;18.83;65.16;102672.72;5095158;28;8848;-52
2021/01/14 03:53:52;;;;;;;;;17.75;16.00;19.60;84.60;;;18.79;65.31;102668.53;5091979;28;8834;-55
2021/01/14 03:56:19;;;;;;;;;21.00;18.75;19.80;85.10;;;18.75;65.52;102675.03;5089563;28;8784;-53
2021/01/14 03:58:46;;;;;;;;;15.00;13.00;19.70;85.00;;;18.71;65.47;102676.22;5087212;28;8801;-54
2021/01/14 04:01:13;;;;;;;;;16.75;16.75;19.70;85.20;;;18.67;65.64;102664.88;5088973;28;8788;-53
2021/01/14 04:03:44;;;;;;;;;26.75;20.00;19.80;85.60;;;18.63;65.82;102656.22;5089049;28;8784;-50
2021/01/14 04:06:12;;;;;;;;;20.25;16.00;19.50;85.50;;;18.60;65.98;102659.09;5092725;28;8805;-50
2021/01/14 04:08:40;;;;;;;;;13.75;13.25;19.50;85.70;;;18.56;65.99;102654.91;5094891;28;8856;-48
2021/01/14 04:11:09;;;;;;;;;13.50;13.50;19.60;85.70;;;18.55;65.98;102663.94;5084768;28;8852;-51
2021/01/14 04:13:36;;;;;;;;;14.25;14.00;19.80;85.00;;;18.54;66.44;102661.34;5084720;28;8766;-53
2021/01/14 04:16:03;;;;;;;;;15.25;13.25;19.50;85.80;;;18.48;66.18;102659.97;5087984;28;8791;-52
2021/01/14 04:18:30;;;;;;;;;22.00;17.25;19.70;85.90;;;18.45;66.75;102670.88;5093464;28;8830;-51
2021/01/14 04:20:57;;;;;;;;;11.25;11.00;19.40;86.10;;;18.41;66.75;102669.38;5096074;28;8796;-48
2021/01/14 04:23:24;;;;;;;;;18.50;17.25;19.40;85.70;;;18.38;66.86;102685.66;5082947;28;8868;-52
2021/01/14 04:25:51;;;;;;;;;11.25;10.00;19.00;87.30;;;18.39;66.76;102682.00;5094636;28;8818;-48
2021/01/14 04:28:17;;;;;;;;;14.75;14.00;18.90;87.40;;;18.44;67.12;102680.75;5080124;28;8825;-52
2021/01/14 04:30:45;;;;;;;;;14.50;14.00;19.20;87.30;;;18.41;66.88;102688.09;5076288;28;8909;-50
2021/01/14 04:33:12;;;;;;;;;11.00;11.00;19.30;86.70;;;18.34;66.74;102693.03;5077115;28;8786;-53
2021/01/14 04:35:54;;;;;;;;;12.00;11.25;19.10;86.10;;;18.31;66.61;102698.56;5096100;28;8907;-53
2021/01/14 04:38:24;;;;;;;;;17.75;15.00;19.30;86.40;;;18.26;66.28;102700.72;5079660;28;8882;-53
2021/01/14 04:41:04;;;;;;;;;15.25;15.00;19.00;86.10;;;18.23;66.36;102701.78;5086594;28;8804;-53
2021/01/14 04:43:33;;;;;;;;;17.75;16.25;19.20;86.20;;;18.17;66.30;102696.00;5066913;28;8865;-52
2021/01/14 04:46:20;;;;;;;;;14.50;12.50;19.20;86.30;;;18.13;66.20;102706.03;5094300;28;8798;-54
2021/01/14 04:48:50;;;;;;;;;15.50;14.50;19.00;86.60;;;18.08;66.05;102704.66;5080393;28;8781;-50
2021/01/14 04:51:20;;;;;;;;;11.25;10.50;19.00;86.50;;;18.10;66.84;102705.41;5093477;28;9306;-54
2021/01/14 04:53:49;;;;;;;;;10.00;9.25;18.70;87.90;;;18.11;66.58;102710.63;5090840;28;8826;-54
2021/01/14 04:56:18;;;;;;;;;11.50;11.50;18.70;87.70;;;18.15;67.47;102713.97;5070797;28;8794;-54
2021/01/14 04:58:49;;;;;;;;;15.00;14.75;18.90;87.60;;;18.21;67.60;102717.06;5080206;28;8822;-52
2021/01/14 05:01:28;;;;;;;;;22.00;20.25;19.20;87.60;;;18.25;68.29;102709.72;5060516;28;8798;-51
2021/01/14 05:03:57;;;;;;;;;19.75;17.75;19.40;87.00;;;18.29;68.33;102710.34;5081762;28;8839;-54
2021/01/14 05:06:25;;;;;;;;;18.50;16.50;19.60;87.00;;;18.31;68.34;102711.97;5086782;28;8772;-49
2021/01/14 05:09:01;;;;;;;;;23.00;20.50;19.40;86.70;;;18.32;68.35;102713.69;5078405;28;8842;-53
2021/01/14 05:11:52;;;;;;;;;20.00;18.75;19.70;86.70;;;18.35;68.33;102715.28;5083281;28;8841;-51
2021/01/14 05:14:19;;;;;;;;;19.00;17.00;19.70;86.50;;;18.38;68.21;102723.97;5085614;28;8792;-54
2021/01/14 05:16:52;;;;;;;;;14.00;13.25;19.90;86.40;;;18.37;68.22;102722.25;5070887;28;8800;-55
2021/01/14 05:19:19;;;;;;;;;13.50;13.25;19.50;86.50;;;18.42;68.33;102719.28;5088362;28;8766;-51
2021/01/14 05:21:46;;;;;;;;;12.50;11.25;19.60;86.50;;;18.46;67.97;102712.72;5084310;28;8800;-54
2021/01/14 05:24:16;;;;;;;;;15.00;12.75;19.90;85.80;;;18.50;67.94;102710.72;5082793;28;8780;-49
2021/01/14 05:26:46;;;;;;;;;13.50;13.00;20.00;85.90;;;18.50;68.24;102711.56;5084299;28;8776;-53
2021/01/14 05:29:20;;;;;;;;;13.75;11.50;20.00;86.20;;;18.53;68.49;102713.19;5081185;28;9432;-49
2021/01/14 05:31:50;;;;;;;;;16.00;12.75;19.90;86.20;;;18.54;68.33;102713.03;5079194;28;8794;-49
2021/01/14 05:34:18;;;;;;;;;16.75;14.00;20.00;86.30;;;18.57;68.53;102711.97;5081395;28;9524;-53
2021/01/14 05:37:04;;;;;;;;;12.50;12.00;20.00;86.30;;;18.59;68.54;102723.44;5080380;28;8800;-52
2021/01/14 05:39:41;;;;;;;;;11.50;10.75;20.00;86.40;;;18.58;68.32;102708.34;5084206;28;8799;-55
2021/01/14 05:42:11;;;;;;;;;11.25;11.00;20.00;86.40;;;18.60;68.19;102712.66;5084408;28;8855;-57
2021/01/14 05:44:44;;;;;;;;;11.00;10.75;19.90;85.70;;;18.61;67.91;102710.81;5087343;28;8961;-51
2021/01/14 05:47:26;;;;;;;;;13.25;11.75;20.00;86.80;;;18.62;67.90;102704.47;5086902;28;8786;-50
2021/01/14 05:49:59;;;;;;;;;11.00;9.50;20.00;85.80;;;18.61;67.54;102708.13;5091668;28;8812;-49
2021/01/14 05:52:29;;;;;;;;;10.75;9.00;19.90;86.10;;;18.63;67.38;102712.41;5086231;28;8861;-50
2021/01/14 05:55:10;;;;;;;;;8.00;8.00;20.00;85.90;;;18.67;67.39;102702.34;5080381;28;8804;-54
2021/01/14 05:57:39;;;;;;;;;11.25;10.75;20.10;85.60;;;18.68;67.30;102698.72;5081750;28;9534;-50
2021/01/14 06:00:12;;;;;;;;;10.25;8.75;20.10;85.30;;;18.69;67.53;102704.94;5088827;28;8806;-50
2021/01/14 06:02:40;;;;;;;;;12.25;10.25;20.20;85.50;;;18.69;67.49;102699.56;5090025;28;8826;-51
2021/01/14 06:05:34;;;;;;;;;15.25;11.50;20.20;85.10;;;18.69;67.51;102695.06;5093750;28;8798;-54
2021/01/14 06:08:04;;;;;;;;;7.75;7.75;20.10;85.40;;;18.70;67.56;102695.91;5079159;28;8782;-53
2021/01/14 06:10:33;;;;;;;;;10.75;10.75;20.10;85.50;;;18.71;67.65;102703.84;5056477;28;8837;-50
2021/01/14 06:13:01;;;;;;;;;12.50;11.00;20.10;85.40;;;18.70;67.48;102710.19;5082336;28;8900;-53
2021/01/14 06:15:28;;;;;;;;;9.50;9.25;20.00;85.00;;;18.71;67.29;102711.03;5085060;28;8848;-48
2021/01/14 06:17:55;;;;;;;;;13.00;11.50;20.10;85.00;;;18.72;66.90;102710.06;5082127;28;8815;-49
2021/01/14 06:20:22;;;;;;;;;11.25;10.00;19.90;84.70;;;18.71;66.84;102714.56;5087931;28;8808;-49
2021/01/14 06:22:55;;;;;;;;;13.25;13.25;20.20;84.90;;;18.72;66.99;102713.59;5079508;28;8782;-47
2021/01/14 06:25:22;;;;;;;;;10.50;8.75;20.00;84.70;;;18.72;66.77;102710.91;5085296;28;9527;-51
2021/01/14 06:27:59;;;;;;;;;11.75;10.75;20.10;84.80;;;18.72;66.79;102718.94;5072496;28;8894;-52
2021/01/14 06:30:26;;;;;;;;;11.50;8.50;19.90;84.40;;;18.73;66.76;102719.81;5078701;28;8871;-49
2021/01/14 06:33:01;;;;;;;;;10.50;10.00;20.10;84.50;;;18.71;66.54;102719.91;5074658;28;8799;-50
2021/01/14 06:35:29;;;;;;;;;7.75;7.25;20.10;84.60;;;18.72;66.46;102724.28;5078700;28;8833;-52
2021/01/14 06:38:03;;;;;;;;;9.75;9.75;20.10;84.70;;;18.75;66.44;102723.22;5072908;28;8796;-51
2021/01/14 06:40:30;;;;;;;;;10.00;9.00;20.10;84.60;;;18.72;66.32;102716.25;5060829;28;8908;-49
2021/01/14 06:43:12;;;;;;;;;9.25;8.25;20.10;84.70;;;18.72;66.42;102718.94;5072563;28;8894;-47
2021/01/14 06:46:05;;;;;;;;;10.25;8.50;20.10;84.40;;;18.73;66.38;102711.78;5091181;28;8856;-49
2021/01/14 06:48:40;;;;;;;;;8.00;7.25;20.10;84.40;;;18.73;66.23;102704.59;5068764;28;9607;-52
2021/01/14 06:51:18;;;;;;;;;7.00;7.00;20.00;84.00;;;18.74;66.39;102698.28;5060402;28;8790;-49
2021/01/14 06:53:49;;;;;;;;;9.50;8.50;20.30;84.20;;;18.76;66.33;102687.50;5071939;28;8803;-48
2021/01/14 06:56:22;;;;;;;;;9.25;7.75;20.10;84.30;;;18.73;66.13;102693.91;5072878;28;8783;-49
2021/01/14 06:58:51;;;;;;;;;8.25;7.25;20.00;84.30;;;18.73;66.22;102704.59;5066949;28;8813;-50
2021/01/14 07:01:20;;;;;;;;;5.75;5.75;20.10;84.40;;;18.73;66.27;102699.25;5073645;28;8790;-52
2021/01/14 07:04:02;;;;;;;;;8.75;7.50;20.10;84.40;;;18.73;66.16;102696.56;5069412;28;8805;-50
2021/01/14 07:06:37;;;;;;;;;11.75;10.25;20.30;84.50;;;18.74;66.02;102700.09;5054709;28;9541;-55
2021/01/14 07:09:14;;;;;;;;;10.25;10.25;20.00;84.10;;;18.74;66.10;102684.88;5070799;28;8792;-51
2021/01/14 07:11:42;;;;;;;;;8.50;6.75;20.00;84.30;;;18.74;66.12;102684.03;5081779;28;8787;-50
2021/01/14 07:14:15;;;;;;;;;8.50;6.50;20.00;83.70;;;18.74;66.19;102681.38;5089018;28;8862;-49
2021/01/14 07:16:45;;;;;;;;;7.25;7.25;20.10;84.40;;;18.72;65.87;102670.75;5076484;28;8790;-48
2021/01/14 07:19:12;;;;;;;;;8.50;6.50;20.20;84.20;;;18.73;65.95;102677.84;5064637;28;8924;-49
2021/01/14 07:21:46;;;;;;;;;8.50;6.75;20.00;84.20;;;18.74;65.85;102658.13;5085468;28;8810;-50
2021/01/14 07:24:28;;;;;;;;;6.50;6.25;20.20;84.10;;;18.73;65.92;102667.13;5070221;28;8783;-51
2021/01/14 07:26:59;;;;;;;;;7.75;7.00;20.00;84.10;;;18.73;65.85;102671.63;5080766;28;8820;-51
2021/01/14 07:29:27;;;;;;;;;7.25;6.25;20.00;84.20;;;18.73;65.85;102675.16;5078408;28;8778;-50
2021/01/14 07:31:56;;;;;;;;;6.25;6.25;20.10;84.10;;;18.73;65.80;102672.47;5075859;28;8786;-50
2021/01/14 07:34:45;;;;;;;;;5.50;4.75;20.20;84.10;;;18.72;65.82;102662.72;5072829;28;8808;-48
2021/01/14 07:37:16;;;;;;;;;6.75;6.50;19.80;84.10;;;18.72;65.85;102651.16;5083474;28;8867;-49
2021/01/14 07:39:58;;;;;;;;;7.00;6.00;20.00;84.20;;;18.72;65.74;102654.69;5087265;28;8772;-51
2021/01/14 07:42:27;;;;;;;;;7.00;7.00;20.00;84.00;;;18.71;65.60;102658.34;5080638;28;8822;-50
2021/01/14 07:44:56;;;;;;;;;5.75;5.75;20.00;84.00;;;18.71;65.58;102661.03;5076290;28;9221;-52
2021/01/14 07:47:27;;;;;;;;;3.00;3.00;20.00;83.90;;;18.72;65.51;102669.91;5083644;28;8768;-48
2021/01/14 07:49:54;;;;;;;;;6.00;6.00;20.10;84.10;;;18.71;65.62;102663.69;5085146;28;8817;-52
2021/01/14 07:52:57;;;;;;;;;5.25;4.50;20.00;83.70;;;18.70;65.56;102670.03;5074348;28;8872;-48
2021/01/14 07:55:36;;;;;;;;;5.25;5.25;20.10;84.10;;;18.71;65.58;102661.03;5069115;28;8839;-48
2021/01/14 07:58:22;;;;;;;;;6.25;6.00;19.90;84.10;;;18.71;65.97;102654.81;5081818;28;8800;-50
2021/01/14 08:01:18;;;;;;;;;7.00;7.00;20.00;84.20;;;18.70;65.66;102655.75;5084628;28;8780;-51
2021/01/14 08:03:46;;;;;;;;;7.25;7.00;20.00;84.10;;;18.71;65.72;102660.16;5081835;28;8932;-50
2021/01/14 08:06:42;;;;;;;;;4.00;3.00;20.00;84.20;;;18.71;65.55;102660.16;5079456;28;8802;-48
2021/01/14 08:09:11;;;;;;;;;7.25;6.00;20.00;84.20;;;18.68;65.60;102647.84;5080328;28;8886;-48
2021/01/14 08:11:48;;;;;;;;;6.00;6.00;20.00;84.10;;;18.69;65.71;102657.59;5080358;28;8776;-51
2021/01/14 08:14:22;;;;;;;;;6.25;5.75;20.10;84.00;;;18.68;65.72;102663.91;5079633;28;8818;-48
2021/01/14 08:16:52;;;;;;;;;6.25;6.25;20.00;84.10;;;18.69;65.45;102649.56;5086796;28;8765;-47
2021/01/14 08:19:29;;;;;;;;;4.00;4.00;19.90;84.20;;;18.68;65.58;102660.41;5079888;28;8786;-51
2021/01/14 08:21:58;;;;;;;;;6.75;6.00;20.00;84.20;;;18.69;65.73;102657.59;5084057;28;8784;-47
2021/01/14 08:25:02;;;;;;;;;7.25;5.50;20.10;84.60;;;18.68;65.75;102657.72;5082442;28;8793;-51
2021/01/14 08:27:31;;;;;;;;;5.00;5.00;19.80;84.40;;;18.66;65.95;102652.47;5081487;28;8908;-49
2021/01/14 08:30:12;;;;;;;;;7.50;6.00;20.00;84.70;;;18.69;65.88;102662.94;5084871;28;8768;-47
2021/01/14 08:32:45;;;;;;;;;6.00;6.00;19.70;84.60;;;18.67;66.12;102659.50;5079268;28;8913;-48
2021/01/14 08:35:22;;;;;;;;;6.00;5.25;19.90;84.70;;;18.67;65.89;102662.19;5090283;28;8838;-52
2021/01/14 08:37:56;;;;;;;;;6.00;5.25;20.10;84.70;;;18.68;66.25;102666.59;5077799;28;8782;-50
2021/01/14 08:40:37;;;;;;;;;6.75;6.00;19.90;84.70;;;18.66;66.01;102666.69;5092668;28;8918;-49
2021/01/14 08:43:18;;;;;;;;;3.25;3.25;19.90;84.70;;;18.67;65.96;102659.50;5082814;28;8790;-53
2021/01/14 08:45:56;;;;;;;;;8.25;6.50;20.00;84.70;;;18.66;66.13;102666.69;5078533;28;8901;-52
2021/01/14 08:48:30;;;;;;;;;4.50;4.50;19.90;84.70;;;18.66;66.09;102673.88;5082881;28;8779;-50
2021/01/14 08:50:56;;;;;;;;;5.25;5.25;19.90;84.60;;;18.66;65.71;102669.38;5077103;28;8782;-47
2021/01/14 08:53:35;;;;;;;;;6.00;6.00;20.00;84.70;;;18.65;66.05;102665.00;5079344;28;8782;-47
2021/01/14 08:56:06;;;;;;;;;6.00;6.00;19.70;84.60;;;18.67;66.05;102662.19;5086997;28;8797;-50
2021/01/14 08:58:45;;;;;;;;;5.75;5.75;19.80;84.70;;;18.65;66.03;102651.59;5078520;28;8891;-48
2021/01/14 09:01:23;;;;;;;;;6.00;5.00;19.80;84.70;;;18.64;66.05;102643.69;5088224;28;8768;-47
2021/01/14 09:03:54;;;;;;;;;5.50;5.50;19.80;84.70;;;18.64;65.71;102638.31;5084575;28;8795;-49
2021/01/14 09:06:38;;;;;;;;;5.00;4.50;19.70;84.60;;;18.64;65.68;102638.31;5087101;28;8775;-48
2021/01/14 09:09:16;;;;;;;;;5.00;4.00;19.90;84.60;;;18.63;65.66;102642.81;5082653;28;8814;-47
2021/01/14 09:11:43;;;;;;;;;6.50;5.00;19.90;84.70;;;18.64;65.71;102649.03;5087984;28;8922;-54
2021/01/14 09:14:15;;;;;;;;;6.25;5.00;19.90;84.40;;;18.66;65.94;102649.78;5106913;28;8800;-53
2021/01/14 09:16:45;;;;;;;;;5.50;5.25;19.90;84.60;;;18.64;65.86;102649.03;5086446;28;8807;-49
2021/01/14 09:19:13;;;;;;;;;4.75;4.75;19.90;84.70;;;18.64;66.33;102657.06;5092589;28;8791;-49
2021/01/14 09:21:41;;;;;;;;;7.25;6.00;19.90;84.90;;;18.64;66.27;102657.91;5094819;28;8796;-48
2021/01/14 09:24:14;;;;;;;;;8.00;8.00;19.90;84.60;;;18.63;65.91;102652.69;5093211;28;12619;-48
2021/01/14 09:26:42;;;;;;;;;5.75;5.25;20.00;84.80;;;18.63;65.88;102658.03;5093549;28;8792;-51
2021/01/14 09:29:15;;;;;;;;;5.25;4.25;19.90;85.30;;;18.61;66.01;102657.28;5075960;28;8770;-48
2021/01/14 09:31:43;;;;;;;;;5.75;5.75;20.00;84.80;;;18.63;66.17;102663.38;5075831;28;9488;-47
2021/01/14 09:34:10;;;;;;;;;1.75;1.00;19.90;84.80;;;18.62;65.92;102653.63;5091925;28;8808;-48
2021/01/14 09:36:37;;;;;;;;;6.50;5.75;20.00;84.80;;;18.62;66.02;102656.31;5084070;28;8794;-48
2021/01/14 09:39:07;;;;;;;;;6.25;5.00;19.90;84.70;;;18.61;66.10;102650.09;5078821;28;8820;-51
2021/01/14 09:41:39;;;;;;;;;6.00;6.00;19.90;84.70;;;18.61;66.20;102651.94;5081929;28;8794;-48
2021/01/14 09:44:09;;;;;;;;;7.00;6.50;19.80;84.90;;;18.61;66.27;102654.59;5077705;28;8948;-48
2021/01/14 09:46:40;;;;;;;;;4.00;4.00;19.90;84.90;;;18.61;65.92;102657.28;5092301;28;9470;-51
2021/01/14 09:49:16;;;;;;;;;7.25;6.00;19.80;84.90;;;18.61;66.26;102660.81;5082146;28;8902;-48
2021/01/14 09:51:45;;;;;;;;;7.25;6.00;19.80;84.90;;;18.59;66.21;102656.53;5080179;28;8805;-47
2021/01/14 09:54:13;;;;;;;;;5.00;5.00;19.80;84.90;;;18.60;66.32;102661.78;5073850;28;8931;-49
2021/01/14 09:56:54;;;;;;;;;7.00;7.00;19.80;85.00;;;18.59;66.30;102657.38;5093900;28;8813;-49
2021/01/14 09:59:41;;;;;;;;;5.00;5.00;19.80;85.00;;;18.61;66.23;102673.34;5079593;28;8770;-49
2021/01/14 10:02:26;;;;;;;;;7.00;7.00;19.80;85.00;;;18.58;66.02;102665.53;5070092;28;8783;-48
2021/01/14 10:05:01;;;;;;;;;5.00;4.00;19.90;85.00;;;18.58;66.04;102654.81;5070616;28;8794;-49
2021/01/14 10:07:33;;;;;;;;;4.50;4.50;19.80;84.90;;;18.57;66.12;102666.47;5079084;28;8774;-48
2021/01/14 10:10:00;;;;;;;;;5.25;4.25;19.70;85.00;;;18.56;65.99;102667.47;5072639;28;8946;-49
2021/01/14 10:12:32;;;;;;;;;5.00;5.00;19.70;84.90;;;18.57;66.17;102666.47;5088572;28;8811;-49
2021/01/14 10:15:15;;;;;;;;;7.00;6.00;19.60;84.70;;;18.54;66.18;102669.38;5073726;28;8810;-47
2021/01/14 10:17:43;;;;;;;;;7.50;7.25;19.60;84.60;;;18.54;66.16;102664.88;5093094;28;8902;-51
2021/01/14 10:20:12;;;;;;;;;8.25;8.25;19.90;84.90;;;18.54;65.98;102661.34;5089343;28;8782;-48
2021/01/14 10:23:05;;;;;;;;;6.00;6.00;19.70;84.40;;;18.52;65.81;102663.28;5080246;28;8778;-50
2021/01/14 10:28:01;;;;;;;;;7.25;6.75;19.70;84.00;;;18.51;65.26;102664.25;5041214;28;8851;-47
2021/01/14 10:30:29;;;;;;;;;4.50;4.50;19.70;84.00;;;18.51;65.46;102650.88;5048221;28;8792;-47
2021/01/14 10:33:05;;;;;;;;;5.00;5.00;19.50;84.00;;;18.50;65.36;102654.50;5041757;28;8780;-50
2021/01/14 10:35:34;;;;;;;;;8.25;7.50;19.60;84.10;;;18.49;65.43;102653.63;5023042;28;8851;-48
2021/01/14 10:38:11;;;;;;;;;10.00;7.75;19.70;84.10;;;18.47;65.16;102650.22;5036548;28;8778;-51